sensor_id;sensor_type;location;lat;lon;timestamp;temperature;humidity
23497;DHT22;11925;48.122;11.560;2022-08-21T00:02:16;19.70;99.90
23497;DHT22;11925;48.122;11.560;2022-08-21T00:04:45;19.60;99.90
23497;DHT22;11925;48.122;11.560;2022-08-21T00:07:40;19.70;99.90
23497;DHT22;11925;48.122;11.560;2022-08-21T00:10:09;19.60;99.90
23497;DHT22;11925;48.122;11.560;2022-08-21T00:12:38;19.60;99.90
23497;DHT22;11925;48.122;11.560;2022-08-21T00:15:07;19.60;99.90
23497;DHT22;11925;48.122;11.560;2022-08-21T00:17:39;19.60;99.90
23497;DHT22;11925;48.122;11.560;2022-08-21T00:20:09;19.60;99.90
23497;DHT22;11925;48.122;11.560;2022-08-21T00:22:38;19.60;99.90
23497;DHT22;11925;48.122;11.560;2022-08-21T00:25:07;19.60;99.90
23497;DHT22;11925;48.122;11.560;2022-08-21T00:27:36;19.60;99.90
23497;DHT22;11925;48.122;11.560;2022-08-21T00:30:07;19.60;99.90
23497;DHT22;11925;48.122;11.560;2022-08-21T00:32:39;19.50;99.90
23497;DHT22;11925;48.122;11.560;2022-08-21T00:35:12;19.50;99.90
23497;DHT22;11925;48.122;11.560;2022-08-21T00:37:41;19.60;99.90
23497;DHT22;11925;48.122;11.560;2022-08-21T00:40:17;19.60;99.90
23497;DHT22;11925;48.122;11.560;2022-08-21T00:42:46;19.50;99.90
23497;DHT22;11925;48.122;11.560;2022-08-21T00:45:20;19.50;99.90
23497;DHT22;11925;48.122;11.560;2022-08-21T00:47:50;19.60;99.90
23497;DHT22;11925;48.122;11.560;2022-08-21T00:50:20;19.50;99.90
23497;DHT22;11925;48.122;11.560;2022-08-21T00:52:50;20.60;99.90
23497;DHT22;11925;48.122;11.560;2022-08-21T00:55:20;19.50;99.90
23497;DHT22;11925;48.122;11.560;2022-08-21T00:57:52;19.50;99.90
23497;DHT22;11925;48.122;11.560;2022-08-21T01:00:25;19.50;99.90
23497;DHT22;11925;48.122;11.560;2022-08-21T01:02:56;19.50;99.90
23497;DHT22;11925;48.122;11.560;2022-08-21T01:05:25;19.50;99.90
23497;DHT22;11925;48.122;11.560;2022-08-21T01:07:54;19.50;99.90
23497;DHT22;11925;48.122;11.560;2022-08-21T01:10:24;19.50;99.90
23497;DHT22;11925;48.122;11.560;2022-08-21T01:12:54;19.50;99.90
23497;DHT22;11925;48.122;11.560;2022-08-21T01:15:27;19.50;99.90
23497;DHT22;11925;48.122;11.560;2022-08-21T01:17:58;19.50;99.90
23497;DHT22;11925;48.122;11.560;2022-08-21T01:20:27;19.50;99.90
23497;DHT22;11925;48.122;11.560;2022-08-21T01:23:01;19.50;99.90
23497;DHT22;11925;48.122;11.560;2022-08-21T01:25:30;19.50;99.90
23497;DHT22;11925;48.122;11.560;2022-08-21T01:28:12;19.50;99.90
23497;DHT22;11925;48.122;11.560;2022-08-21T01:30:40;19.50;99.90
23497;DHT22;11925;48.122;11.560;2022-08-21T01:33:10;19.40;99.90
23497;DHT22;11925;48.122;11.560;2022-08-21T01:35:38;19.50;99.90
23497;DHT22;11925;48.122;11.560;2022-08-21T01:38:08;19.40;99.90
23497;DHT22;11925;48.122;11.560;2022-08-21T01:40:36;19.40;99.90
23497;DHT22;11925;48.122;11.560;2022-08-21T01:43:05;19.40;99.90
23497;DHT22;11925;48.122;11.560;2022-08-21T01:45:33;19.40;99.90
23497;DHT22;11925;48.122;11.560;2022-08-21T01:48:02;19.40;99.90
23497;DHT22;11925;48.122;11.560;2022-08-21T01:50:30;19.40;99.90
23497;DHT22;11925;48.122;11.560;2022-08-21T01:52:59;19.40;99.90
23497;DHT22;11925;48.122;11.560;2022-08-21T01:55:29;19.40;99.90
23497;DHT22;11925;48.122;11.560;2022-08-21T01:57:58;19.40;99.90
23497;DHT22;11925;48.122;11.560;2022-08-21T02:00:27;19.40;99.90
23497;DHT22;11925;48.122;11.560;2022-08-21T02:02:55;19.40;99.90
23497;DHT22;11925;48.122;11.560;2022-08-21T02:05:24;19.40;99.90
23497;DHT22;11925;48.122;11.560;2022-08-21T02:07:55;19.30;99.90
23497;DHT22;11925;48.122;11.560;2022-08-21T02:10:27;19.00;99.90
23497;DHT22;11925;48.122;11.560;2022-08-21T02:12:58;18.90;99.90
23497;DHT22;11925;48.122;11.560;2022-08-21T02:15:28;19.30;99.90
23497;DHT22;11925;48.122;11.560;2022-08-21T02:17:58;19.30;99.90
23497;DHT22;11925;48.122;11.560;2022-08-21T02:20:30;19.30;99.90
23497;DHT22;11925;48.122;11.560;2022-08-21T02:22:58;19.30;99.90
23497;DHT22;11925;48.122;11.560;2022-08-21T02:25:27;19.30;99.90
23497;DHT22;11925;48.122;11.560;2022-08-21T02:27:57;19.30;99.90
23497;DHT22;11925;48.122;11.560;2022-08-21T02:30:29;19.30;99.90
23497;DHT22;11925;48.122;11.560;2022-08-21T02:32:58;19.10;99.90
23497;DHT22;11925;48.122;11.560;2022-08-21T02:35:26;19.30;99.90
23497;DHT22;11925;48.122;11.560;2022-08-21T02:37:57;19.30;99.90
23497;DHT22;11925;48.122;11.560;2022-08-21T02:40:27;19.10;99.90
23497;DHT22;11925;48.122;11.560;2022-08-21T02:42:59;19.30;99.90
23497;DHT22;11925;48.122;11.560;2022-08-21T02:45:28;19.40;99.90
23497;DHT22;11925;48.122;11.560;2022-08-21T02:47:58;19.30;99.90
23497;DHT22;11925;48.122;11.560;2022-08-21T02:50:32;19.30;99.90
23497;DHT22;11925;48.122;11.560;2022-08-21T02:53:00;19.50;99.90
23497;DHT22;11925;48.122;11.560;2022-08-21T02:55:31;20.70;99.90
23497;DHT22;11925;48.122;11.560;2022-08-21T02:58:02;19.30;99.90
23497;DHT22;11925;48.122;11.560;2022-08-21T03:00:31;19.30;99.90
23497;DHT22;11925;48.122;11.560;2022-08-21T03:02:59;19.40;99.90
23497;DHT22;11925;48.122;11.560;2022-08-21T03:05:29;19.30;99.90
23497;DHT22;11925;48.122;11.560;2022-08-21T03:08:00;19.30;99.90
23497;DHT22;11925;48.122;11.560;2022-08-21T03:10:29;19.30;99.90
23497;DHT22;11925;48.122;11.560;2022-08-21T03:12:57;18.90;99.90
23497;DHT22;11925;48.122;11.560;2022-08-21T03:15:27;19.30;99.90
23497;DHT22;11925;48.122;11.560;2022-08-21T03:17:55;19.30;99.90
23497;DHT22;11925;48.122;11.560;2022-08-21T03:20:26;19.30;99.90
23497;DHT22;11925;48.122;11.560;2022-08-21T03:22:55;19.20;99.90
23497;DHT22;11925;48.122;11.560;2022-08-21T03:25:25;19.20;99.90
23497;DHT22;11925;48.122;11.560;2022-08-21T03:28:09;19.20;99.90
23497;DHT22;11925;48.122;11.560;2022-08-21T03:30:42;19.30;99.90
23497;DHT22;11925;48.122;11.560;2022-08-21T03:33:10;19.40;99.90
23497;DHT22;11925;48.122;11.560;2022-08-21T03:35:42;19.20;99.90
23497;DHT22;11925;48.122;11.560;2022-08-21T03:38:11;19.60;99.90
23497;DHT22;11925;48.122;11.560;2022-08-21T03:40:41;19.20;99.90
23497;DHT22;11925;48.122;11.560;2022-08-21T03:43:09;19.20;99.90
23497;DHT22;11925;48.122;11.560;2022-08-21T03:45:38;19.20;99.90
23497;DHT22;11925;48.122;11.560;2022-08-21T03:48:08;19.20;99.90
23497;DHT22;11925;48.122;11.560;2022-08-21T03:50:42;19.20;99.90
23497;DHT22;11925;48.122;11.560;2022-08-21T03:53:11;19.20;99.90
23497;DHT22;11925;48.122;11.560;2022-08-21T03:55:44;19.20;99.90
23497;DHT22;11925;48.122;11.560;2022-08-21T03:58:13;19.10;99.90
23497;DHT22;11925;48.122;11.560;2022-08-21T04:00:43;19.10;99.90
23497;DHT22;11925;48.122;11.560;2022-08-21T04:03:14;19.10;99.90
23497;DHT22;11925;48.122;11.560;2022-08-21T04:05:42;19.30;99.90
23497;DHT22;11925;48.122;11.560;2022-08-21T04:08:14;19.10;99.90
23497;DHT22;11925;48.122;11.560;2022-08-21T04:10:44;19.10;99.90
23497;DHT22;11925;48.122;11.560;2022-08-21T04:13:13;19.00;99.90
23497;DHT22;11925;48.122;11.560;2022-08-21T04:15:42;19.00;99.90
23497;DHT22;11925;48.122;11.560;2022-08-21T04:18:12;19.00;99.90
23497;DHT22;11925;48.122;11.560;2022-08-21T04:20:41;19.00;99.90
23497;DHT22;11925;48.122;11.560;2022-08-21T04:23:16;19.00;99.90
23497;DHT22;11925;48.122;11.560;2022-08-21T04:25:51;19.00;99.90
23497;DHT22;11925;48.122;11.560;2022-08-21T04:28:19;19.00;99.90
23497;DHT22;11925;48.122;11.560;2022-08-21T04:30:49;18.90;99.90
23497;DHT22;11925;48.122;11.560;2022-08-21T04:33:21;18.90;99.90
23497;DHT22;11925;48.122;11.560;2022-08-21T04:35:49;18.90;99.90
23497;DHT22;11925;48.122;11.560;2022-08-21T04:38:18;18.90;99.90
23497;DHT22;11925;48.122;11.560;2022-08-21T04:40:48;18.90;99.90
23497;DHT22;11925;48.122;11.560;2022-08-21T04:43:17;18.90;99.90
23497;DHT22;11925;48.122;11.560;2022-08-21T04:45:48;18.90;99.90
23497;DHT22;11925;48.122;11.560;2022-08-21T04:48:20;18.90;99.90
23497;DHT22;11925;48.122;11.560;2022-08-21T04:50:52;18.90;99.90
23497;DHT22;11925;48.122;11.560;2022-08-21T04:53:24;18.90;99.90
23497;DHT22;11925;48.122;11.560;2022-08-21T04:55:54;18.90;99.90
23497;DHT22;11925;48.122;11.560;2022-08-21T04:58:24;18.90;99.90
23497;DHT22;11925;48.122;11.560;2022-08-21T05:00:54;18.90;99.90
23497;DHT22;11925;48.122;11.560;2022-08-21T05:03:25;18.90;99.90
23497;DHT22;11925;48.122;11.560;2022-08-21T05:05:54;18.90;99.90
23497;DHT22;11925;48.122;11.560;2022-08-21T05:08:24;18.90;99.90
23497;DHT22;11925;48.122;11.560;2022-08-21T05:10:53;18.90;99.90
23497;DHT22;11925;48.122;11.560;2022-08-21T05:13:27;18.90;99.90
23497;DHT22;11925;48.122;11.560;2022-08-21T05:15:55;18.90;99.90
23497;DHT22;11925;48.122;11.560;2022-08-21T05:18:25;18.70;99.90
23497;DHT22;11925;48.122;11.560;2022-08-21T05:20:53;18.90;99.90
23497;DHT22;11925;48.122;11.560;2022-08-21T05:23:21;18.90;99.90
23497;DHT22;11925;48.122;11.560;2022-08-21T05:25:50;18.80;99.90
23497;DHT22;11925;48.122;11.560;2022-08-21T05:28:18;18.80;99.90
23497;DHT22;11925;48.122;11.560;2022-08-21T05:30:47;18.90;99.90
23497;DHT22;11925;48.122;11.560;2022-08-21T05:33:15;18.80;99.90
23497;DHT22;11925;48.122;11.560;2022-08-21T05:35:44;18.80;99.90
23497;DHT22;11925;48.122;11.560;2022-08-21T05:38:14;18.80;99.90
23497;DHT22;11925;48.122;11.560;2022-08-21T05:40:44;18.80;99.90
23497;DHT22;11925;48.122;11.560;2022-08-21T05:43:13;18.80;99.90
23497;DHT22;11925;48.122;11.560;2022-08-21T05:45:42;18.90;99.90
23497;DHT22;11925;48.122;11.560;2022-08-21T05:48:13;18.70;99.90
23497;DHT22;11925;48.122;11.560;2022-08-21T05:50:44;18.80;99.90
23497;DHT22;11925;48.122;11.560;2022-08-21T05:53:14;18.80;99.90
23497;DHT22;11925;48.122;11.560;2022-08-21T05:55:44;18.80;99.90
23497;DHT22;11925;48.122;11.560;2022-08-21T05:58:14;18.80;99.90
23497;DHT22;11925;48.122;11.560;2022-08-21T06:00:44;18.90;99.90
23497;DHT22;11925;48.122;11.560;2022-08-21T06:03:13;18.90;99.90
23497;DHT22;11925;48.122;11.560;2022-08-21T06:05:43;18.90;99.90
23497;DHT22;11925;48.122;11.560;2022-08-21T06:08:13;18.90;99.90
23497;DHT22;11925;48.122;11.560;2022-08-21T06:10:42;18.90;99.90
23497;DHT22;11925;48.122;11.560;2022-08-21T06:13:11;18.80;99.90
23497;DHT22;11925;48.122;11.560;2022-08-21T06:15:40;19.00;99.90
23497;DHT22;11925;48.122;11.560;2022-08-21T06:18:09;19.10;99.90
23497;DHT22;11925;48.122;11.560;2022-08-21T06:20:37;19.00;99.90
23497;DHT22;11925;48.122;11.560;2022-08-21T06:23:08;19.00;99.90
23497;DHT22;11925;48.122;11.560;2022-08-21T06:25:36;19.10;99.90
23497;DHT22;11925;48.122;11.560;2022-08-21T06:28:06;19.00;99.90
23497;DHT22;11925;48.122;11.560;2022-08-21T06:30:36;18.90;99.90
23497;DHT22;11925;48.122;11.560;2022-08-21T06:35:34;19.10;99.90
23497;DHT22;11925;48.122;11.560;2022-08-21T06:38:08;19.00;99.90
23497;DHT22;11925;48.122;11.560;2022-08-21T06:40:37;19.10;99.90
23497;DHT22;11925;48.122;11.560;2022-08-21T06:43:15;19.10;99.90
23497;DHT22;11925;48.122;11.560;2022-08-21T06:45:44;19.10;99.90
23497;DHT22;11925;48.122;11.560;2022-08-21T06:48:12;19.10;99.90
23497;DHT22;11925;48.122;11.560;2022-08-21T06:50:46;19.10;99.90
23497;DHT22;11925;48.122;11.560;2022-08-21T06:53:17;19.10;99.90
23497;DHT22;11925;48.122;11.560;2022-08-21T06:55:47;19.20;99.90
23497;DHT22;11925;48.122;11.560;2022-08-21T06:58:16;19.10;99.90
23497;DHT22;11925;48.122;11.560;2022-08-21T07:00:47;18.90;99.90
23497;DHT22;11925;48.122;11.560;2022-08-21T07:03:18;19.00;99.90
23497;DHT22;11925;48.122;11.560;2022-08-21T07:05:46;19.10;99.90
23497;DHT22;11925;48.122;11.560;2022-08-21T07:08:16;19.10;99.90
23497;DHT22;11925;48.122;11.560;2022-08-21T07:10:45;19.20;99.90
23497;DHT22;11925;48.122;11.560;2022-08-21T07:13:14;19.10;99.90
23497;DHT22;11925;48.122;11.560;2022-08-21T07:15:43;19.10;99.90
23497;DHT22;11925;48.122;11.560;2022-08-21T07:18:12;19.10;99.90
23497;DHT22;11925;48.122;11.560;2022-08-21T07:20:41;20.30;99.90
23497;DHT22;11925;48.122;11.560;2022-08-21T07:23:14;19.10;99.90
23497;DHT22;11925;48.122;11.560;2022-08-21T07:25:48;19.10;99.90
23497;DHT22;11925;48.122;11.560;2022-08-21T07:28:16;19.10;99.90
23497;DHT22;11925;48.122;11.560;2022-08-21T07:30:44;19.10;99.90
23497;DHT22;11925;48.122;11.560;2022-08-21T07:33:13;19.10;99.90
23497;DHT22;11925;48.122;11.560;2022-08-21T07:35:41;19.20;99.90
23497;DHT22;11925;48.122;11.560;2022-08-21T07:38:09;19.20;99.90
23497;DHT22;11925;48.122;11.560;2022-08-21T07:40:38;19.10;99.90
23497;DHT22;11925;48.122;11.560;2022-08-21T07:43:07;17.50;99.90
23497;DHT22;11925;48.122;11.560;2022-08-21T07:45:36;19.20;99.90
23497;DHT22;11925;48.122;11.560;2022-08-21T07:50:33;19.20;99.90
23497;DHT22;11925;48.122;11.560;2022-08-21T07:53:02;19.20;99.90
23497;DHT22;11925;48.122;11.560;2022-08-21T07:55:31;19.20;99.90
23497;DHT22;11925;48.122;11.560;2022-08-21T07:57:59;19.20;99.90
23497;DHT22;11925;48.122;11.560;2022-08-21T08:00:29;19.30;99.90
23497;DHT22;11925;48.122;11.560;2022-08-21T08:02:58;19.40;99.90
23497;DHT22;11925;48.122;11.560;2022-08-21T08:05:28;19.30;99.90
23497;DHT22;11925;48.122;11.560;2022-08-21T08:08:16;19.30;99.90
23497;DHT22;11925;48.122;11.560;2022-08-21T08:10:45;19.30;99.90
23497;DHT22;11925;48.122;11.560;2022-08-21T08:13:13;19.30;99.90
23497;DHT22;11925;48.122;11.560;2022-08-21T08:15:43;19.30;99.90
23497;DHT22;11925;48.122;11.560;2022-08-21T08:18:11;19.30;99.90
23497;DHT22;11925;48.122;11.560;2022-08-21T08:20:40;19.30;99.90
23497;DHT22;11925;48.122;11.560;2022-08-21T08:23:10;19.40;99.90
23497;DHT22;11925;48.122;11.560;2022-08-21T08:25:57;19.40;99.90
23497;DHT22;11925;48.122;11.560;2022-08-21T08:28:26;19.40;99.90
23497;DHT22;11925;48.122;11.560;2022-08-21T08:30:56;19.40;99.90
23497;DHT22;11925;48.122;11.560;2022-08-21T08:33:43;19.40;99.90
23497;DHT22;11925;48.122;11.560;2022-08-21T08:36:15;19.40;99.90
23497;DHT22;11925;48.122;11.560;2022-08-21T08:38:46;19.40;99.90
23497;DHT22;11925;48.122;11.560;2022-08-21T08:41:17;19.50;99.90
23497;DHT22;11925;48.122;11.560;2022-08-21T08:43:50;19.50;99.90
23497;DHT22;11925;48.122;11.560;2022-08-21T08:46:26;19.50;99.90
23497;DHT22;11925;48.122;11.560;2022-08-21T08:49:02;19.50;99.90
23497;DHT22;11925;48.122;11.560;2022-08-21T08:51:39;19.50;99.90
23497;DHT22;11925;48.122;11.560;2022-08-21T08:54:12;19.60;99.90
23497;DHT22;11925;48.122;11.560;2022-08-21T08:56:42;19.60;99.90
23497;DHT22;11925;48.122;11.560;2022-08-21T08:59:15;19.60;99.90
23497;DHT22;11925;48.122;11.560;2022-08-21T09:01:47;19.60;99.90
23497;DHT22;11925;48.122;11.560;2022-08-21T09:04:22;19.60;99.90
23497;DHT22;11925;48.122;11.560;2022-08-21T09:06:58;19.60;99.90
23497;DHT22;11925;48.122;11.560;2022-08-21T09:09:38;19.60;99.90
23497;DHT22;11925;48.122;11.560;2022-08-21T09:12:15;19.60;99.90
23497;DHT22;11925;48.122;11.560;2022-08-21T09:14:58;19.60;99.90
23497;DHT22;11925;48.122;11.560;2022-08-21T09:17:39;19.60;99.90
23497;DHT22;11925;48.122;11.560;2022-08-21T09:20:19;19.70;99.90
23497;DHT22;11925;48.122;11.560;2022-08-21T09:22:59;19.50;99.90
23497;DHT22;11925;48.122;11.560;2022-08-21T09:25:38;19.60;99.90
23497;DHT22;11925;48.122;11.560;2022-08-21T09:28:11;19.60;99.90
23497;DHT22;11925;48.122;11.560;2022-08-21T09:30:41;19.70;99.90
23497;DHT22;11925;48.122;11.560;2022-08-21T09:33:13;19.60;99.90
23497;DHT22;11925;48.122;11.560;2022-08-21T09:35:51;19.70;99.90
23497;DHT22;11925;48.122;11.560;2022-08-21T09:38:29;19.60;99.90
23497;DHT22;11925;48.122;11.560;2022-08-21T09:41:01;19.70;99.90
23497;DHT22;11925;48.122;11.560;2022-08-21T09:43:31;19.70;99.90
23497;DHT22;11925;48.122;11.560;2022-08-21T09:46:07;19.80;99.90
23497;DHT22;11925;48.122;11.560;2022-08-21T09:48:46;19.70;99.90
23497;DHT22;11925;48.122;11.560;2022-08-21T09:51:17;19.80;99.90
23497;DHT22;11925;48.122;11.560;2022-08-21T09:53:49;19.80;99.90
23497;DHT22;11925;48.122;11.560;2022-08-21T09:56:27;19.90;99.90
23497;DHT22;11925;48.122;11.560;2022-08-21T09:59:20;19.80;99.90
23497;DHT22;11925;48.122;11.560;2022-08-21T10:01:50;19.80;99.90
23497;DHT22;11925;48.122;11.560;2022-08-21T10:04:39;19.80;99.90
23497;DHT22;11925;48.122;11.560;2022-08-21T10:07:35;19.80;99.90
23497;DHT22;11925;48.122;11.560;2022-08-21T10:10:06;19.80;99.90
23497;DHT22;11925;48.122;11.560;2022-08-21T10:12:45;19.80;99.90
23497;DHT22;11925;48.122;11.560;2022-08-21T10:15:22;19.60;99.90
23497;DHT22;11925;48.122;11.560;2022-08-21T10:18:01;19.60;99.90
23497;DHT22;11925;48.122;11.560;2022-08-21T10:20:37;19.80;99.90
23497;DHT22;11925;48.122;11.560;2022-08-21T10:23:34;19.80;99.90
23497;DHT22;11925;48.122;11.560;2022-08-21T10:26:09;19.80;99.90
23497;DHT22;11925;48.122;11.560;2022-08-21T10:28:51;19.80;99.90
23497;DHT22;11925;48.122;11.560;2022-08-21T10:31:32;19.80;99.90
23497;DHT22;11925;48.122;11.560;2022-08-21T10:34:15;19.90;99.90
23497;DHT22;11925;48.122;11.560;2022-08-21T10:36:56;19.70;99.90
23497;DHT22;11925;48.122;11.560;2022-08-21T10:39:32;19.80;99.90
23497;DHT22;11925;48.122;11.560;2022-08-21T10:42:13;19.80;99.90
23497;DHT22;11925;48.122;11.560;2022-08-21T10:45:26;18.60;99.90
23497;DHT22;11925;48.122;11.560;2022-08-21T10:48:00;19.60;99.90
23497;DHT22;11925;48.122;11.560;2022-08-21T10:50:31;19.80;99.90
23497;DHT22;11925;48.122;11.560;2022-08-21T10:53:16;19.70;99.90
23497;DHT22;11925;48.122;11.560;2022-08-21T10:55:52;19.80;99.90
23497;DHT22;11925;48.122;11.560;2022-08-21T10:58:28;19.80;99.90
23497;DHT22;11925;48.122;11.560;2022-08-21T11:01:00;19.80;99.90
23497;DHT22;11925;48.122;11.560;2022-08-21T11:03:34;19.80;99.90
23497;DHT22;11925;48.122;11.560;2022-08-21T11:06:10;19.80;99.90
23497;DHT22;11925;48.122;11.560;2022-08-21T11:08:43;19.90;99.90
23497;DHT22;11925;48.122;11.560;2022-08-21T11:11:17;20.00;99.90
23497;DHT22;11925;48.122;11.560;2022-08-21T11:13:52;19.90;99.90
23497;DHT22;11925;48.122;11.560;2022-08-21T11:16:28;19.80;99.90
23497;DHT22;11925;48.122;11.560;2022-08-21T11:19:07;19.90;99.90
23497;DHT22;11925;48.122;11.560;2022-08-21T11:21:39;19.90;99.90
23497;DHT22;11925;48.122;11.560;2022-08-21T11:24:30;19.70;99.90
23497;DHT22;11925;48.122;11.560;2022-08-21T11:27:04;19.80;99.90
23497;DHT22;11925;48.122;11.560;2022-08-21T11:29:35;19.80;99.90
23497;DHT22;11925;48.122;11.560;2022-08-21T11:32:21;19.80;99.90
23497;DHT22;11925;48.122;11.560;2022-08-21T11:35:00;19.90;99.90
23497;DHT22;11925;48.122;11.560;2022-08-21T11:37:40;19.80;99.90
23497;DHT22;11925;48.122;11.560;2022-08-21T11:40:45;19.70;99.90
23497;DHT22;11925;48.122;11.560;2022-08-21T11:43:38;19.70;99.90
23497;DHT22;11925;48.122;11.560;2022-08-21T11:46:23;19.70;99.90
23497;DHT22;11925;48.122;11.560;2022-08-21T11:49:29;19.70;99.90
23497;DHT22;11925;48.122;11.560;2022-08-21T11:52:07;19.80;99.90
23497;DHT22;11925;48.122;11.560;2022-08-21T11:54:39;19.80;99.90
23497;DHT22;11925;48.122;11.560;2022-08-21T11:57:17;19.90;99.90
23497;DHT22;11925;48.122;11.560;2022-08-21T12:00:12;19.60;99.90
23497;DHT22;11925;48.122;11.560;2022-08-21T12:02:45;19.60;99.90
23497;DHT22;11925;48.122;11.560;2022-08-21T12:05:26;19.90;99.90
23497;DHT22;11925;48.122;11.560;2022-08-21T12:08:05;19.90;99.90
23497;DHT22;11925;48.122;11.560;2022-08-21T12:10:36;19.70;99.90
23497;DHT22;11925;48.122;11.560;2022-08-21T12:13:10;19.90;99.90
23497;DHT22;11925;48.122;11.560;2022-08-21T12:18:23;19.80;99.90
23497;DHT22;11925;48.122;11.560;2022-08-21T12:21:01;19.80;99.90
23497;DHT22;11925;48.122;11.560;2022-08-21T12:23:32;19.70;99.90
23497;DHT22;11925;48.122;11.560;2022-08-21T12:28:48;19.80;99.90
23497;DHT22;11925;48.122;11.560;2022-08-21T12:31:23;19.70;99.90
23497;DHT22;11925;48.122;11.560;2022-08-21T12:33:56;19.70;99.90
23497;DHT22;11925;48.122;11.560;2022-08-21T12:36:39;19.70;99.90
23497;DHT22;11925;48.122;11.560;2022-08-21T12:39:13;19.80;99.90
23497;DHT22;11925;48.122;11.560;2022-08-21T12:41:47;19.70;99.90
23497;DHT22;11925;48.122;11.560;2022-08-21T12:44:30;19.80;99.90
23497;DHT22;11925;48.122;11.560;2022-08-21T12:47:04;19.80;99.90
23497;DHT22;11925;48.122;11.560;2022-08-21T12:49:36;19.70;99.90
23497;DHT22;11925;48.122;11.560;2022-08-21T12:52:14;19.70;99.90
23497;DHT22;11925;48.122;11.560;2022-08-21T12:57:21;19.70;99.90
23497;DHT22;11925;48.122;11.560;2022-08-21T12:59:56;19.80;99.90
23497;DHT22;11925;48.122;11.560;2022-08-21T13:02:29;19.80;99.90
23497;DHT22;11925;48.122;11.560;2022-08-21T13:05:02;19.80;99.90
23497;DHT22;11925;48.122;11.560;2022-08-21T13:07:34;19.80;99.90
23497;DHT22;11925;48.122;11.560;2022-08-21T13:10:06;19.80;99.90
23497;DHT22;11925;48.122;11.560;2022-08-21T13:12:36;19.90;99.90
23497;DHT22;11925;48.122;11.560;2022-08-21T13:15:07;19.80;99.90
23497;DHT22;11925;48.122;11.560;2022-08-21T13:17:39;19.70;99.90
23497;DHT22;11925;48.122;11.560;2022-08-21T13:20:21;19.70;99.90
23497;DHT22;11925;48.122;11.560;2022-08-21T13:22:50;19.60;99.90
23497;DHT22;11925;48.122;11.560;2022-08-21T13:25:20;19.70;99.90
23497;DHT22;11925;48.122;11.560;2022-08-21T13:27:58;19.70;99.90
23497;DHT22;11925;48.122;11.560;2022-08-21T13:30:29;19.70;99.90
23497;DHT22;11925;48.122;11.560;2022-08-21T13:33:00;18.60;99.90
23497;DHT22;11925;48.122;11.560;2022-08-21T13:35:44;19.50;99.90
23497;DHT22;11925;48.122;11.560;2022-08-21T13:38:14;19.70;99.90
23497;DHT22;11925;48.122;11.560;2022-08-21T13:40:48;19.70;99.90
23497;DHT22;11925;48.122;11.560;2022-08-21T13:43:18;19.70;99.90
23497;DHT22;11925;48.122;11.560;2022-08-21T13:45:50;19.70;99.90
23497;DHT22;11925;48.122;11.560;2022-08-21T13:48:20;19.70;99.90
23497;DHT22;11925;48.122;11.560;2022-08-21T13:50:50;19.70;99.90
23497;DHT22;11925;48.122;11.560;2022-08-21T13:53:26;19.70;99.90
23497;DHT22;11925;48.122;11.560;2022-08-21T13:55:56;19.70;99.90
23497;DHT22;11925;48.122;11.560;2022-08-21T13:58:28;19.70;99.90
23497;DHT22;11925;48.122;11.560;2022-08-21T14:01:00;19.80;99.90
23497;DHT22;11925;48.122;11.560;2022-08-21T14:03:35;19.80;99.90
23497;DHT22;11925;48.122;11.560;2022-08-21T14:06:11;19.80;99.90
23497;DHT22;11925;48.122;11.560;2022-08-21T14:08:41;19.80;99.90
23497;DHT22;11925;48.122;11.560;2022-08-21T14:11:15;19.90;99.90
23497;DHT22;11925;48.122;11.560;2022-08-21T14:13:47;19.80;99.90
23497;DHT22;11925;48.122;11.560;2022-08-21T14:16:18;19.80;99.90
23497;DHT22;11925;48.122;11.560;2022-08-21T14:18:51;19.80;99.90
23497;DHT22;11925;48.122;11.560;2022-08-21T14:21:29;19.80;99.90
23497;DHT22;11925;48.122;11.560;2022-08-21T14:24:07;19.80;99.90
23497;DHT22;11925;48.122;11.560;2022-08-21T14:26:43;19.80;99.90
23497;DHT22;11925;48.122;11.560;2022-08-21T14:29:15;19.80;99.90
23497;DHT22;11925;48.122;11.560;2022-08-21T14:31:49;19.70;99.90
23497;DHT22;11925;48.122;11.560;2022-08-21T14:34:19;19.70;99.90
23497;DHT22;11925;48.122;11.560;2022-08-21T14:36:48;19.70;99.90
23497;DHT22;11925;48.122;11.560;2022-08-21T14:39:17;19.70;99.90
23497;DHT22;11925;48.122;11.560;2022-08-21T14:41:46;19.70;99.90
23497;DHT22;11925;48.122;11.560;2022-08-21T14:44:16;19.60;99.90
23497;DHT22;11925;48.122;11.560;2022-08-21T14:46:47;19.70;99.90
23497;DHT22;11925;48.122;11.560;2022-08-21T14:49:24;19.70;99.90
23497;DHT22;11925;48.122;11.560;2022-08-21T14:51:55;19.60;99.90
23497;DHT22;11925;48.122;11.560;2022-08-21T14:54:26;19.60;99.90
23497;DHT22;11925;48.122;11.560;2022-08-21T14:57:00;19.60;99.90
23497;DHT22;11925;48.122;11.560;2022-08-21T14:59:29;19.60;99.90
23497;DHT22;11925;48.122;11.560;2022-08-21T15:02:01;19.60;99.90
23497;DHT22;11925;48.122;11.560;2022-08-21T15:04:32;19.50;99.90
23497;DHT22;11925;48.122;11.560;2022-08-21T15:07:01;19.60;99.90
23497;DHT22;11925;48.122;11.560;2022-08-21T15:09:29;19.70;99.90
23497;DHT22;11925;48.122;11.560;2022-08-21T15:11:58;19.60;99.90
23497;DHT22;11925;48.122;11.560;2022-08-21T15:14:30;19.70;99.90
23497;DHT22;11925;48.122;11.560;2022-08-21T15:17:02;19.60;99.90
23497;DHT22;11925;48.122;11.560;2022-08-21T15:19:31;19.60;99.90
23497;DHT22;11925;48.122;11.560;2022-08-21T15:22:00;19.60;99.90
23497;DHT22;11925;48.122;11.560;2022-08-21T15:24:28;19.60;99.90
23497;DHT22;11925;48.122;11.560;2022-08-21T15:26:59;19.60;99.90
23497;DHT22;11925;48.122;11.560;2022-08-21T15:29:30;19.60;99.90
23497;DHT22;11925;48.122;11.560;2022-08-21T15:32:02;19.70;99.90
23497;DHT22;11925;48.122;11.560;2022-08-21T15:34:42;19.70;99.90
23497;DHT22;11925;48.122;11.560;2022-08-21T15:37:11;18.00;99.90
23497;DHT22;11925;48.122;11.560;2022-08-21T15:39:39;19.60;99.90
23497;DHT22;11925;48.122;11.560;2022-08-21T15:42:08;19.70;99.90
23497;DHT22;11925;48.122;11.560;2022-08-21T15:44:38;17.20;99.90
23497;DHT22;11925;48.122;11.560;2022-08-21T15:47:11;19.60;99.90
23497;DHT22;11925;48.122;11.560;2022-08-21T15:49:40;19.60;99.90
23497;DHT22;11925;48.122;11.560;2022-08-21T15:52:12;19.70;99.90
23497;DHT22;11925;48.122;11.560;2022-08-21T15:54:40;19.70;99.90
23497;DHT22;11925;48.122;11.560;2022-08-21T15:57:10;19.70;99.90
23497;DHT22;11925;48.122;11.560;2022-08-21T16:00:04;19.70;99.90
23497;DHT22;11925;48.122;11.560;2022-08-21T16:02:44;19.70;99.90